sensor_id;sensor_type;location;lat;lon;timestamp;P1;durP1;ratioP1;P2;durP2;ratioP2
16254;SDS011;8235;52.198;9.904;2023-03-01T00:00:53;15.07;;;8.57;;
16254;SDS011;8235;52.198;9.904;2023-03-01T00:03:20;12.63;;;8.77;;
16254;SDS011;8235;52.198;9.904;2023-03-01T00:05:46;15.40;;;9.30;;
16254;SDS011;8235;52.198;9.904;2023-03-01T00:08:14;12.00;;;9.03;;
16254;SDS011;8235;52.198;9.904;2023-03-01T00:10:41;16.80;;;11.03;;
16254;SDS011;8235;52.198;9.904;2023-03-01T00:13:07;13.13;;;9.30;;
16254;SDS011;8235;52.198;9.904;2023-03-01T00:15:37;12.63;;;9.27;;
16254;SDS011;8235;52.198;9.904;2023-03-01T00:18:04;13.20;;;8.80;;
16254;SDS011;8235;52.198;9.904;2023-03-01T00:20:31;16.80;;;9.83;;
16254;SDS011;8235;52.198;9.904;2023-03-01T00:22:57;12.87;;;9.37;;
16254;SDS011;8235;52.198;9.904;2023-03-01T00:25:25;14.93;;;9.37;;
16254;SDS011;8235;52.198;9.904;2023-03-01T00:27:51;14.10;;;9.60;;
16254;SDS011;8235;52.198;9.904;2023-03-01T00:30:18;14.17;;;9.70;;
16254;SDS011;8235;52.198;9.904;2023-03-01T00:32:44;13.83;;;9.43;;
16254;SDS011;8235;52.198;9.904;2023-03-01T00:35:11;14.67;;;9.37;;
16254;SDS011;8235;52.198;9.904;2023-03-01T00:37:38;14.80;;;9.57;;
16254;SDS011;8235;52.198;9.904;2023-03-01T00:40:07;15.87;;;10.53;;
16254;SDS011;8235;52.198;9.904;2023-03-01T00:42:36;16.50;;;10.67;;
16254;SDS011;8235;52.198;9.904;2023-03-01T00:45:03;16.30;;;9.43;;
16254;SDS011;8235;52.198;9.904;2023-03-01T00:47:30;18.10;;;9.93;;
16254;SDS011;8235;52.198;9.904;2023-03-01T00:49:57;14.77;;;10.27;;
16254;SDS011;8235;52.198;9.904;2023-03-01T00:52:23;14.80;;;10.77;;
16254;SDS011;8235;52.198;9.904;2023-03-01T00:54:51;13.97;;;10.17;;
16254;SDS011;8235;52.198;9.904;2023-03-01T00:57:19;14.90;;;9.37;;
16254;SDS011;8235;52.198;9.904;2023-03-01T00:59:47;19.40;;;11.03;;
16254;SDS011;8235;52.198;9.904;2023-03-01T01:02:13;16.00;;;10.83;;
16254;SDS011;8235;52.198;9.904;2023-03-01T01:04:40;16.63;;;9.50;;
16254;SDS011;8235;52.198;9.904;2023-03-01T01:07:06;14.43;;;9.00;;
16254;SDS011;8235;52.198;9.904;2023-03-01T01:09:33;14.13;;;8.73;;
16254;SDS011;8235;52.198;9.904;2023-03-01T01:11:59;16.17;;;8.77;;
16254;SDS011;8235;52.198;9.904;2023-03-01T01:14:26;10.03;;;7.93;;
16254;SDS011;8235;52.198;9.904;2023-03-01T01:16:53;13.73;;;9.13;;
16254;SDS011;8235;52.198;9.904;2023-03-01T01:19:20;15.23;;;9.17;;
16254;SDS011;8235;52.198;9.904;2023-03-01T01:21:46;13.57;;;8.83;;
16254;SDS011;8235;52.198;9.904;2023-03-01T01:24:14;11.97;;;7.93;;
16254;SDS011;8235;52.198;9.904;2023-03-01T01:26:41;12.17;;;8.83;;
16254;SDS011;8235;52.198;9.904;2023-03-01T01:29:08;16.40;;;10.07;;
16254;SDS011;8235;52.198;9.904;2023-03-01T01:31:36;18.30;;;10.47;;
16254;SDS011;8235;52.198;9.904;2023-03-01T01:34:06;15.40;;;9.67;;
16254;SDS011;8235;52.198;9.904;2023-03-01T01:36:38;16.77;;;10.03;;
16254;SDS011;8235;52.198;9.904;2023-03-01T01:39:04;19.93;;;11.10;;
16254;SDS011;8235;52.198;9.904;2023-03-01T01:41:32;13.70;;;9.87;;
16254;SDS011;8235;52.198;9.904;2023-03-01T01:44:12;14.90;;;9.77;;
16254;SDS011;8235;52.198;9.904;2023-03-01T01:46:41;14.73;;;9.70;;
16254;SDS011;8235;52.198;9.904;2023-03-01T01:49:15;18.13;;;10.67;;
16254;SDS011;8235;52.198;9.904;2023-03-01T01:51:51;14.47;;;9.37;;
16254;SDS011;8235;52.198;9.904;2023-03-01T01:54:26;17.77;;;10.23;;
16254;SDS011;8235;52.198;9.904;2023-03-01T01:56:57;13.80;;;9.10;;
16254;SDS011;8235;52.198;9.904;2023-03-01T01:59:26;14.77;;;10.00;;
16254;SDS011;8235;52.198;9.904;2023-03-01T02:01:56;14.70;;;9.43;;
16254;SDS011;8235;52.198;9.904;2023-03-01T02:04:28;12.93;;;9.13;;
16254;SDS011;8235;52.198;9.904;2023-03-01T02:06:55;15.40;;;9.67;;
16254;SDS011;8235;52.198;9.904;2023-03-01T02:09:27;16.70;;;9.83;;
16254;SDS011;8235;52.198;9.904;2023-03-01T02:11:54;14.03;;;9.33;;
16254;SDS011;8235;52.198;9.904;2023-03-01T02:14:21;15.97;;;9.57;;
16254;SDS011;8235;52.198;9.904;2023-03-01T02:16:47;14.43;;;9.50;;
16254;SDS011;8235;52.198;9.904;2023-03-01T02:19:17;14.00;;;8.57;;
16254;SDS011;8235;52.198;9.904;2023-03-01T02:21:55;15.77;;;9.90;;
16254;SDS011;8235;52.198;9.904;2023-03-01T02:24:28;12.53;;;8.83;;
16254;SDS011;8235;52.198;9.904;2023-03-01T02:27:02;11.90;;;8.30;;
16254;SDS011;8235;52.198;9.904;2023-03-01T02:29:30;13.03;;;8.33;;
16254;SDS011;8235;52.198;9.904;2023-03-01T02:31:57;12.53;;;8.27;;
16254;SDS011;8235;52.198;9.904;2023-03-01T02:34:27;16.03;;;8.80;;
16254;SDS011;8235;52.198;9.904;2023-03-01T02:36:55;10.80;;;8.40;;
16254;SDS011;8235;52.198;9.904;2023-03-01T02:39:25;14.27;;;8.73;;
16254;SDS011;8235;52.198;9.904;2023-03-01T02:41:55;15.23;;;8.10;;
16254;SDS011;8235;52.198;9.904;2023-03-01T02:44:22;13.00;;;8.43;;
16254;SDS011;8235;52.198;9.904;2023-03-01T02:46:51;16.00;;;8.30;;
16254;SDS011;8235;52.198;9.904;2023-03-01T02:49:20;13.13;;;8.50;;
16254;SDS011;8235;52.198;9.904;2023-03-01T02:51:52;15.30;;;8.27;;
16254;SDS011;8235;52.198;9.904;2023-03-01T02:54:28;14.27;;;8.17;;
16254;SDS011;8235;52.198;9.904;2023-03-01T02:56:58;11.93;;;8.07;;
16254;SDS011;8235;52.198;9.904;2023-03-01T02:59:26;11.93;;;7.90;;
16254;SDS011;8235;52.198;9.904;2023-03-01T03:01:58;11.83;;;9.03;;
16254;SDS011;8235;52.198;9.904;2023-03-01T03:04:26;13.47;;;8.93;;
16254;SDS011;8235;52.198;9.904;2023-03-01T03:06:53;15.57;;;8.40;;
16254;SDS011;8235;52.198;9.904;2023-03-01T03:09:19;11.47;;;8.37;;
16254;SDS011;8235;52.198;9.904;2023-03-01T03:11:46;11.80;;;7.63;;
16254;SDS011;8235;52.198;9.904;2023-03-01T03:14:13;11.80;;;8.33;;
16254;SDS011;8235;52.198;9.904;2023-03-01T03:16:41;13.43;;;8.73;;
16254;SDS011;8235;52.198;9.904;2023-03-01T03:19:11;11.57;;;8.27;;
16254;SDS011;8235;52.198;9.904;2023-03-01T03:21:38;13.23;;;9.10;;
16254;SDS011;8235;52.198;9.904;2023-03-01T03:24:05;13.77;;;9.50;;
16254;SDS011;8235;52.198;9.904;2023-03-01T03:26:32;13.27;;;9.50;;
16254;SDS011;8235;52.198;9.904;2023-03-01T03:28:58;15.87;;;8.57;;
16254;SDS011;8235;52.198;9.904;2023-03-01T03:31:25;16.23;;;9.10;;
16254;SDS011;8235;52.198;9.904;2023-03-01T03:33:52;14.27;;;9.37;;
16254;SDS011;8235;52.198;9.904;2023-03-01T03:36:20;12.37;;;9.67;;
16254;SDS011;8235;52.198;9.904;2023-03-01T03:38:49;15.40;;;8.60;;
16254;SDS011;8235;52.198;9.904;2023-03-01T03:41:15;14.20;;;9.03;;
16254;SDS011;8235;52.198;9.904;2023-03-01T03:43:42;12.07;;;8.80;;
16254;SDS011;8235;52.198;9.904;2023-03-01T03:46:09;16.03;;;8.97;;
16254;SDS011;8235;52.198;9.904;2023-03-01T03:48:38;14.43;;;8.87;;
16254;SDS011;8235;52.198;9.904;2023-03-01T03:51:05;14.77;;;9.30;;
16254;SDS011;8235;52.198;9.904;2023-03-01T03:53:33;12.97;;;9.13;;
16254;SDS011;8235;52.198;9.904;2023-03-01T03:56:00;14.53;;;8.93;;
16254;SDS011;8235;52.198;9.904;2023-03-01T03:58:26;12.70;;;8.03;;
16254;SDS011;8235;52.198;9.904;2023-03-01T04:00:54;14.03;;;8.90;;
16254;SDS011;8235;52.198;9.904;2023-03-01T04:03:22;11.70;;;8.80;;
16254;SDS011;8235;52.198;9.904;2023-03-01T04:05:50;14.77;;;8.90;;
16254;SDS011;8235;52.198;9.904;2023-03-01T04:08:18;11.53;;;8.40;;
16254;SDS011;8235;52.198;9.904;2023-03-01T04:10:47;12.47;;;8.80;;
16254;SDS011;8235;52.198;9.904;2023-03-01T04:13:15;13.43;;;9.00;;
16254;SDS011;8235;52.198;9.904;2023-03-01T04:15:44;13.33;;;8.80;;
16254;SDS011;8235;52.198;9.904;2023-03-01T04:18:11;13.73;;;8.33;;
16254;SDS011;8235;52.198;9.904;2023-03-01T04:20:39;12.60;;;9.23;;
16254;SDS011;8235;52.198;9.904;2023-03-01T04:23:07;12.73;;;8.90;;
16254;SDS011;8235;52.198;9.904;2023-03-01T04:25:38;14.10;;;9.07;;
16254;SDS011;8235;52.198;9.904;2023-03-01T04:28:07;16.93;;;8.97;;
16254;SDS011;8235;52.198;9.904;2023-03-01T04:30:35;16.17;;;9.60;;
16254;SDS011;8235;52.198;9.904;2023-03-01T04:33:02;15.00;;;9.10;;
16254;SDS011;8235;52.198;9.904;2023-03-01T04:35:30;14.03;;;8.80;;
16254;SDS011;8235;52.198;9.904;2023-03-01T04:37:56;14.50;;;8.97;;
16254;SDS011;8235;52.198;9.904;2023-03-01T04:40:23;13.40;;;9.40;;
16254;SDS011;8235;52.198;9.904;2023-03-01T04:42:50;14.00;;;9.53;;
16254;SDS011;8235;52.198;9.904;2023-03-01T04:45:18;15.13;;;9.27;;
16254;SDS011;8235;52.198;9.904;2023-03-01T04:47:45;14.17;;;9.10;;
16254;SDS011;8235;52.198;9.904;2023-03-01T04:50:13;15.90;;;8.90;;
16254;SDS011;8235;52.198;9.904;2023-03-01T04:52:40;15.73;;;9.30;;
16254;SDS011;8235;52.198;9.904;2023-03-01T04:55:08;14.23;;;9.73;;
16254;SDS011;8235;52.198;9.904;2023-03-01T04:57:35;14.33;;;8.93;;
16254;SDS011;8235;52.198;9.904;2023-03-01T05:00:02;11.63;;;8.87;;
16254;SDS011;8235;52.198;9.904;2023-03-01T05:02:46;16.03;;;9.80;;
16254;SDS011;8235;52.198;9.904;2023-03-01T05:05:18;12.13;;;8.90;;
16254;SDS011;8235;52.198;9.904;2023-03-01T05:07:50;14.40;;;9.63;;
16254;SDS011;8235;52.198;9.904;2023-03-01T05:10:20;14.93;;;9.20;;
16254;SDS011;8235;52.198;9.904;2023-03-01T05:12:48;16.27;;;9.73;;
16254;SDS011;8235;52.198;9.904;2023-03-01T05:15:14;15.30;;;9.13;;
16254;SDS011;8235;52.198;9.904;2023-03-01T05:17:41;11.80;;;8.77;;
16254;SDS011;8235;52.198;9.904;2023-03-01T05:20:10;10.57;;;8.27;;
16254;SDS011;8235;52.198;9.904;2023-03-01T05:22:36;11.97;;;8.40;;
16254;SDS011;8235;52.198;9.904;2023-03-01T05:25:03;16.07;;;8.83;;
16254;SDS011;8235;52.198;9.904;2023-03-01T05:27:30;11.03;;;8.47;;
16254;SDS011;8235;52.198;9.904;2023-03-01T05:29:57;13.07;;;9.50;;
16254;SDS011;8235;52.198;9.904;2023-03-01T05:32:38;13.27;;;8.97;;
16254;SDS011;8235;52.198;9.904;2023-03-01T05:35:06;11.90;;;8.40;;
16254;SDS011;8235;52.198;9.904;2023-03-01T05:37:34;15.37;;;9.60;;
16254;SDS011;8235;52.198;9.904;2023-03-01T05:40:01;14.17;;;8.97;;
16254;SDS011;8235;52.198;9.904;2023-03-01T05:42:28;14.43;;;10.27;;
16254;SDS011;8235;52.198;9.904;2023-03-01T05:44:58;19.10;;;9.60;;
16254;SDS011;8235;52.198;9.904;2023-03-01T05:47:24;13.23;;;9.07;;
16254;SDS011;8235;52.198;9.904;2023-03-01T05:49:51;14.57;;;8.50;;
16254;SDS011;8235;52.198;9.904;2023-03-01T05:52:17;14.70;;;9.23;;
16254;SDS011;8235;52.198;9.904;2023-03-01T05:54:45;12.73;;;8.30;;
16254;SDS011;8235;52.198;9.904;2023-03-01T05:57:11;12.27;;;8.33;;
16254;SDS011;8235;52.198;9.904;2023-03-01T05:59:38;14.90;;;7.83;;
16254;SDS011;8235;52.198;9.904;2023-03-01T06:02:05;14.03;;;8.70;;
16254;SDS011;8235;52.198;9.904;2023-03-01T06:04:31;14.27;;;9.13;;
16254;SDS011;8235;52.198;9.904;2023-03-01T06:06:57;13.93;;;8.80;;
16254;SDS011;8235;52.198;9.904;2023-03-01T06:09:24;9.43;;;7.60;;
16254;SDS011;8235;52.198;9.904;2023-03-01T06:11:52;13.27;;;8.03;;
16254;SDS011;8235;52.198;9.904;2023-03-01T06:14:18;11.57;;;7.90;;
16254;SDS011;8235;52.198;9.904;2023-03-01T06:16:45;12.07;;;7.90;;
16254;SDS011;8235;52.198;9.904;2023-03-01T06:19:12;11.33;;;8.27;;
16254;SDS011;8235;52.198;9.904;2023-03-01T06:21:39;12.07;;;8.43;;
16254;SDS011;8235;52.198;9.904;2023-03-01T06:24:05;13.27;;;9.27;;
16254;SDS011;8235;52.198;9.904;2023-03-01T06:26:33;12.73;;;8.63;;
16254;SDS011;8235;52.198;9.904;2023-03-01T06:29:01;16.43;;;9.50;;
16254;SDS011;8235;52.198;9.904;2023-03-01T06:31:27;11.80;;;8.43;;
16254;SDS011;8235;52.198;9.904;2023-03-01T06:33:54;17.03;;;9.07;;
16254;SDS011;8235;52.198;9.904;2023-03-01T06:36:20;14.33;;;8.27;;
16254;SDS011;8235;52.198;9.904;2023-03-01T06:38:46;15.13;;;9.17;;
16254;SDS011;8235;52.198;9.904;2023-03-01T06:41:13;11.73;;;8.80;;
16254;SDS011;8235;52.198;9.904;2023-03-01T06:43:39;12.80;;;9.23;;
16254;SDS011;8235;52.198;9.904;2023-03-01T06:46:07;13.63;;;8.20;;
16254;SDS011;8235;52.198;9.904;2023-03-01T06:48:34;11.50;;;7.77;;
16254;SDS011;8235;52.198;9.904;2023-03-01T06:51:00;11.90;;;8.30;;
16254;SDS011;8235;52.198;9.904;2023-03-01T06:53:27;11.80;;;8.00;;
16254;SDS011;8235;52.198;9.904;2023-03-01T06:55:54;18.80;;;9.00;;
16254;SDS011;8235;52.198;9.904;2023-03-01T06:58:21;12.43;;;8.33;;
16254;SDS011;8235;52.198;9.904;2023-03-01T07:00:47;12.33;;;8.63;;
16254;SDS011;8235;52.198;9.904;2023-03-01T07:03:15;14.27;;;8.00;;
16254;SDS011;8235;52.198;9.904;2023-03-01T07:05:42;12.67;;;9.13;;
16254;SDS011;8235;52.198;9.904;2023-03-01T07:08:09;14.47;;;8.43;;
16254;SDS011;8235;52.198;9.904;2023-03-01T07:10:36;12.90;;;8.47;;
16254;SDS011;8235;52.198;9.904;2023-03-01T07:13:02;11.83;;;8.40;;
16254;SDS011;8235;52.198;9.904;2023-03-01T07:15:31;11.00;;;8.87;;
16254;SDS011;8235;52.198;9.904;2023-03-01T07:17:58;16.77;;;8.83;;
16254;SDS011;8235;52.198;9.904;2023-03-01T07:20:26;14.00;;;9.30;;
16254;SDS011;8235;52.198;9.904;2023-03-01T07:22:52;14.50;;;9.23;;
16254;SDS011;8235;52.198;9.904;2023-03-01T07:25:20;15.53;;;10.43;;
16254;SDS011;8235;52.198;9.904;2023-03-01T07:27:48;14.67;;;10.33;;
16254;SDS011;8235;52.198;9.904;2023-03-01T07:30:15;15.63;;;10.57;;
16254;SDS011;8235;52.198;9.904;2023-03-01T07:32:42;30.67;;;16.57;;
16254;SDS011;8235;52.198;9.904;2023-03-01T07:35:10;59.27;;;28.17;;
16254;SDS011;8235;52.198;9.904;2023-03-01T07:37:38;26.07;;;15.03;;
16254;SDS011;8235;52.198;9.904;2023-03-01T07:40:05;26.23;;;13.47;;
16254;SDS011;8235;52.198;9.904;2023-03-01T07:42:32;19.47;;;11.63;;
16254;SDS011;8235;52.198;9.904;2023-03-01T07:44:59;19.87;;;12.17;;
16254;SDS011;8235;52.198;9.904;2023-03-01T07:47:25;18.93;;;12.87;;
16254;SDS011;8235;52.198;9.904;2023-03-01T07:49:52;21.53;;;12.33;;
16254;SDS011;8235;52.198;9.904;2023-03-01T07:52:18;18.83;;;12.47;;
16254;SDS011;8235;52.198;9.904;2023-03-01T07:54:46;17.33;;;12.30;;
16254;SDS011;8235;52.198;9.904;2023-03-01T07:57:12;16.23;;;11.73;;
16254;SDS011;8235;52.198;9.904;2023-03-01T07:59:39;18.93;;;12.23;;
16254;SDS011;8235;52.198;9.904;2023-03-01T08:02:05;22.23;;;12.60;;
16254;SDS011;8235;52.198;9.904;2023-03-01T08:04:32;20.40;;;12.67;;
16254;SDS011;8235;52.198;9.904;2023-03-01T08:06:59;15.03;;;10.83;;
16254;SDS011;8235;52.198;9.904;2023-03-01T08:09:25;16.53;;;12.13;;
16254;SDS011;8235;52.198;9.904;2023-03-01T08:11:53;24.60;;;14.33;;
16254;SDS011;8235;52.198;9.904;2023-03-01T08:14:20;17.47;;;12.73;;
16254;SDS011;8235;52.198;9.904;2023-03-01T08:16:48;18.10;;;11.47;;
16254;SDS011;8235;52.198;9.904;2023-03-01T08:19:15;26.00;;;13.87;;
16254;SDS011;8235;52.198;9.904;2023-03-01T08:21:41;19.70;;;12.30;;
16254;SDS011;8235;52.198;9.904;2023-03-01T08:24:08;17.90;;;12.23;;
16254;SDS011;8235;52.198;9.904;2023-03-01T08:26:35;18.03;;;12.23;;
16254;SDS011;8235;52.198;9.904;2023-03-01T08:29:03;16.40;;;12.80;;
16254;SDS011;8235;52.198;9.904;2023-03-01T08:31:31;22.77;;;12.17;;
16254;SDS011;8235;52.198;9.904;2023-03-01T10:14:17;14.00;;;9.30;;
16254;SDS011;8235;52.198;9.904;2023-03-01T10:16:54;12.07;;;8.83;;
16254;SDS011;8235;52.198;9.904;2023-03-01T10:19:24;10.07;;;8.10;;
16254;SDS011;8235;52.198;9.904;2023-03-01T10:21:55;12.03;;;8.40;;
16254;SDS011;8235;52.198;9.904;2023-03-01T10:24:26;11.87;;;7.93;;
16254;SDS011;8235;52.198;9.904;2023-03-01T10:26:57;11.47;;;6.93;;
16254;SDS011;8235;52.198;9.904;2023-03-01T10:29:29;9.80;;;7.37;;
16254;SDS011;8235;52.198;9.904;2023-03-01T10:32:00;10.97;;;7.97;;
16254;SDS011;8235;52.198;9.904;2023-03-01T10:34:32;10.63;;;7.27;;
16254;SDS011;8235;52.198;9.904;2023-03-01T10:37:01;10.87;;;7.40;;
16254;SDS011;8235;52.198;9.904;2023-03-01T10:39:36;8.77;;;6.97;;
16254;SDS011;8235;52.198;9.904;2023-03-01T10:42:03;9.43;;;6.53;;
16254;SDS011;8235;52.198;9.904;2023-03-01T10:44:39;7.87;;;5.63;;
16254;SDS011;8235;52.198;9.904;2023-03-01T10:47:13;8.67;;;6.27;;
16254;SDS011;8235;52.198;9.904;2023-03-01T10:49:53;8.10;;;6.00;;
16254;SDS011;8235;52.198;9.904;2023-03-01T10:52:25;8.80;;;6.60;;
16254;SDS011;8235;52.198;9.904;2023-03-01T10:54:57;8.70;;;5.90;;
16254;SDS011;8235;52.198;9.904;2023-03-01T10:57:28;8.33;;;5.80;;
16254;SDS011;8235;52.198;9.904;2023-03-01T11:00:14;7.23;;;5.40;;
16254;SDS011;8235;52.198;9.904;2023-03-01T11:02:47;9.20;;;5.67;;
16254;SDS011;8235;52.198;9.904;2023-03-01T11:05:19;6.20;;;4.47;;
16254;SDS011;8235;52.198;9.904;2023-03-01T11:07:49;7.80;;;5.20;;
16254;SDS011;8235;52.198;9.904;2023-03-01T11:10:17;7.93;;;5.67;;
16254;SDS011;8235;52.198;9.904;2023-03-01T11:12:45;8.27;;;5.53;;
16254;SDS011;8235;52.198;9.904;2023-03-01T11:15:20;7.50;;;5.73;;
16254;SDS011;8235;52.198;9.904;2023-03-01T11:17:49;6.47;;;4.77;;
16254;SDS011;8235;52.198;9.904;2023-03-01T11:20:18;8.67;;;5.07;;
16254;SDS011;8235;52.198;9.904;2023-03-01T11:22:52;8.00;;;5.37;;
16254;SDS011;8235;52.198;9.904;2023-03-01T11:25:21;9.67;;;5.23;;
16254;SDS011;8235;52.198;9.904;2023-03-01T11:27:51;8.30;;;4.97;;
16254;SDS011;8235;52.198;9.904;2023-03-01T11:30:21;11.13;;;5.43;;
16254;SDS011;8235;52.198;9.904;2023-03-01T11:32:54;8.10;;;5.50;;
16254;SDS011;8235;52.198;9.904;2023-03-01T11:35:30;8.27;;;5.23;;
16254;SDS011;8235;52.198;9.904;2023-03-01T11:38:03;7.03;;;5.30;;
16254;SDS011;8235;52.198;9.904;2023-03-01T11:40:43;6.77;;;4.80;;
16254;SDS011;8235;52.198;9.904;2023-03-01T11:43:15;10.00;;;5.10;;
16254;SDS011;8235;52.198;9.904;2023-03-01T11:49:01;6.30;;;4.63;;
16254;SDS011;8235;52.198;9.904;2023-03-01T11:51:45;7.67;;;5.80;;
16254;SDS011;8235;52.198;9.904;2023-03-01T11:54:24;17.43;;;9.60;;
16254;SDS011;8235;52.198;9.904;2023-03-01T11:57:00;6.60;;;4.80;;
16254;SDS011;8235;52.198;9.904;2023-03-01T11:59:34;8.70;;;5.20;;
16254;SDS011;8235;52.198;9.904;2023-03-01T12:02:16;7.67;;;4.77;;
16254;SDS011;8235;52.198;9.904;2023-03-01T12:05:20;8.43;;;4.47;;
16254;SDS011;8235;52.198;9.904;2023-03-01T12:08:01;6.73;;;4.67;;
16254;SDS011;8235;52.198;9.904;2023-03-01T12:10:37;7.60;;;4.77;;
16254;SDS011;8235;52.198;9.904;2023-03-01T12:13:20;6.70;;;4.50;;
16254;SDS011;8235;52.198;9.904;2023-03-01T12:16:15;7.83;;;5.53;;
16254;SDS011;8235;52.198;9.904;2023-03-01T12:21:59;7.57;;;5.07;;
16254;SDS011;8235;52.198;9.904;2023-03-01T12:24:47;7.57;;;4.83;;
16254;SDS011;8235;52.198;9.904;2023-03-01T12:27:39;8.03;;;4.87;;
16254;SDS011;8235;52.198;9.904;2023-03-01T12:30:21;7.07;;;4.53;;
16254;SDS011;8235;52.198;9.904;2023-03-01T12:33:02;10.13;;;5.30;;
16254;SDS011;8235;52.198;9.904;2023-03-01T12:35:46;6.27;;;4.47;;
16254;SDS011;8235;52.198;9.904;2023-03-01T12:38:25;6.47;;;4.87;;
16254;SDS011;8235;52.198;9.904;2023-03-01T12:41:10;5.97;;;4.13;;
16254;SDS011;8235;52.198;9.904;2023-03-01T12:44:00;5.23;;;4.40;;
16254;SDS011;8235;52.198;9.904;2023-03-01T12:46:38;5.40;;;4.10;;
16254;SDS011;8235;52.198;9.904;2023-03-01T12:49:18;5.47;;;4.13;;
16254;SDS011;8235;52.198;9.904;2023-03-01T12:51:50;9.03;;;4.43;;
16254;SDS011;8235;52.198;9.904;2023-03-01T12:54:26;6.40;;;4.40;;
16254;SDS011;8235;52.198;9.904;2023-03-01T12:56:54;6.57;;;4.57;;
16254;SDS011;8235;52.198;9.904;2023-03-01T12:59:24;7.57;;;4.50;;
16254;SDS011;8235;52.198;9.904;2023-03-01T13:02:01;5.03;;;3.90;;
16254;SDS011;8235;52.198;9.904;2023-03-01T13:04:38;4.57;;;4.00;;
16254;SDS011;8235;52.198;9.904;2023-03-01T13:07:25;6.73;;;4.57;;
16254;SDS011;8235;52.198;9.904;2023-03-01T13:10:02;5.37;;;3.83;;
16254;SDS011;8235;52.198;9.904;2023-03-01T13:12:44;6.20;;;4.10;;
16254;SDS011;8235;52.198;9.904;2023-03-01T13:15:25;6.97;;;4.33;;
16254;SDS011;8235;52.198;9.904;2023-03-01T13:17:54;4.93;;;3.67;;
16254;SDS011;8235;52.198;9.904;2023-03-01T13:20:23;3.80;;;3.00;;
16254;SDS011;8235;52.198;9.904;2023-03-01T13:23:00;4.50;;;3.57;;
16254;SDS011;8235;52.198;9.904;2023-03-01T13:25:31;5.60;;;3.73;;
16254;SDS011;8235;52.198;9.904;2023-03-01T13:31:01;10.50;;;3.53;;
16254;SDS011;8235;52.198;9.904;2023-03-01T13:33:42;4.90;;;3.57;;
16254;SDS011;8235;52.198;9.904;2023-03-01T13:36:10;5.17;;;3.40;;
16254;SDS011;8235;52.198;9.904;2023-03-01T13:38:59;5.00;;;3.80;;
16254;SDS011;8235;52.198;9.904;2023-03-01T13:44:21;6.53;;;4.00;;
16254;SDS011;8235;52.198;9.904;2023-03-01T13:46:52;5.03;;;3.97;;
16254;SDS011;8235;52.198;9.904;2023-03-01T13:49:22;6.30;;;4.07;;
16254;SDS011;8235;52.198;9.904;2023-03-01T13:51:52;5.20;;;3.60;;
16254;SDS011;8235;52.198;9.904;2023-03-01T13:54:32;6.17;;;3.80;;
16254;SDS011;8235;52.198;9.904;2023-03-01T13:57:00;4.07;;;3.53;;
16254;SDS011;8235;52.198;9.904;2023-03-01T13:59:28;6.63;;;3.50;;
16254;SDS011;8235;52.198;9.904;2023-03-01T14:01:56;5.07;;;3.50;;
16254;SDS011;8235;52.198;9.904;2023-03-01T14:04:24;5.23;;;3.60;;
16254;SDS011;8235;52.198;9.904;2023-03-01T14:07:08;4.60;;;3.47;;
16254;SDS011;8235;52.198;9.904;2023-03-01T14:09:36;5.30;;;3.50;;
16254;SDS011;8235;52.198;9.904;2023-03-01T14:12:14;6.03;;;3.63;;
16254;SDS011;8235;52.198;9.904;2023-03-01T14:14:53;4.83;;;3.17;;
16254;SDS011;8235;52.198;9.904;2023-03-01T14:17:34;5.43;;;3.80;;
16254;SDS011;8235;52.198;9.904;2023-03-01T14:20:09;7.60;;;3.93;;
16254;SDS011;8235;52.198;9.904;2023-03-01T14:22:40;4.67;;;3.50;;
16254;SDS011;8235;52.198;9.904;2023-03-01T14:25:17;5.47;;;3.37;;
16254;SDS011;8235;52.198;9.904;2023-03-01T14:27:55;4.17;;;3.23;;
16254;SDS011;8235;52.198;9.904;2023-03-01T14:30:24;4.70;;;3.67;;
16254;SDS011;8235;52.198;9.904;2023-03-01T14:32:53;4.70;;;3.33;;
16254;SDS011;8235;52.198;9.904;2023-03-01T14:35:21;7.20;;;3.80;;
16254;SDS011;8235;52.198;9.904;2023-03-01T14:37:49;5.27;;;3.50;;
16254;SDS011;8235;52.198;9.904;2023-03-01T14:40:26;4.73;;;3.43;;
16254;SDS011;8235;52.198;9.904;2023-03-01T14:42:55;4.73;;;3.47;;
16254;SDS011;8235;52.198;9.904;2023-03-01T14:45:24;4.13;;;3.13;;
16254;SDS011;8235;52.198;9.904;2023-03-01T14:47:53;3.40;;;3.10;;
16254;SDS011;8235;52.198;9.904;2023-03-01T14:50:25;4.53;;;3.10;;
16254;SDS011;8235;52.198;9.904;2023-03-01T14:52:54;5.40;;;3.23;;
16254;SDS011;8235;52.198;9.904;2023-03-01T14:55:25;4.77;;;3.47;;
16254;SDS011;8235;52.198;9.904;2023-03-01T14:57:56;5.40;;;3.30;;
16254;SDS011;8235;52.198;9.904;2023-03-01T15:00:24;4.90;;;3.33;;
16254;SDS011;8235;52.198;9.904;2023-03-01T15:02:53;4.33;;;3.13;;
16254;SDS011;8235;52.198;9.904;2023-03-01T15:05:23;4.27;;;3.40;;
16254;SDS011;8235;52.198;9.904;2023-03-01T15:07:52;4.27;;;3.40;;
16254;SDS011;8235;52.198;9.904;2023-03-01T15:10:21;5.17;;;3.10;;
16254;SDS011;8235;52.198;9.904;2023-03-01T15:12:49;5.60;;;2.80;;
16254;SDS011;8235;52.198;9.904;2023-03-01T15:18:06;3.77;;;3.13;;
16254;SDS011;8235;52.198;9.904;2023-03-01T15:20:41;5.13;;;3.30;;
16254;SDS011;8235;52.198;9.904;2023-03-01T15:23:13;4.93;;;3.10;;
16254;SDS011;8235;52.198;9.904;2023-03-01T15:25:48;6.10;;;3.40;;
16254;SDS011;8235;52.198;9.904;2023-03-01T15:28:21;5.93;;;3.23;;
16254;SDS011;8235;52.198;9.904;2023-03-01T15:30:53;5.87;;;3.60;;
16254;SDS011;8235;52.198;9.904;2023-03-01T15:33:28;4.57;;;3.00;;
16254;SDS011;8235;52.198;9.904;2023-03-01T15:35:57;3.87;;;3.13;;
16254;SDS011;8235;52.198;9.904;2023-03-01T15:41:22;5.70;;;2.97;;
16254;SDS011;8235;52.198;9.904;2023-03-01T15:43:52;3.43;;;2.70;;
16254;SDS011;8235;52.198;9.904;2023-03-01T15:46:23;4.80;;;2.90;;
16254;SDS011;8235;52.198;9.904;2023-03-01T15:48:53;3.83;;;2.63;;
16254;SDS011;8235;52.198;9.904;2023-03-01T15:51:26;6.43;;;3.17;;
16254;SDS011;8235;52.198;9.904;2023-03-01T15:53:58;5.27;;;3.37;;
16254;SDS011;8235;52.198;9.904;2023-03-01T15:56:26;12.03;;;3.67;;
16254;SDS011;8235;52.198;9.904;2023-03-01T15:58:57;3.70;;;2.90;;
16254;SDS011;8235;52.198;9.904;2023-03-01T16:01:26;6.47;;;3.50;;
16254;SDS011;8235;52.198;9.904;2023-03-01T16:03:53;5.57;;;3.07;;
16254;SDS011;8235;52.198;9.904;2023-03-01T16:06:21;4.27;;;3.27;;
16254;SDS011;8235;52.198;9.904;2023-03-01T16:08:48;4.63;;;3.10;;
16254;SDS011;8235;52.198;9.904;2023-03-01T16:11:16;5.03;;;3.33;;
16254;SDS011;8235;52.198;9.904;2023-03-01T16:13:44;5.10;;;3.00;;
16254;SDS011;8235;52.198;9.904;2023-03-01T16:16:11;5.10;;;3.20;;
16254;SDS011;8235;52.198;9.904;2023-03-01T16:18:46;4.57;;;2.90;;
16254;SDS011;8235;52.198;9.904;2023-03-01T16:21:38;7.60;;;3.70;;
16254;SDS011;8235;52.198;9.904;2023-03-01T16:24:18;5.47;;;3.47;;
16254;SDS011;8235;52.198;9.904;2023-03-01T16:26:56;4.97;;;3.23;;
16254;SDS011;8235;52.198;9.904;2023-03-01T16:29:29;6.30;;;3.23;;
16254;SDS011;8235;52.198;9.904;2023-03-01T16:32:01;3.90;;;2.80;;
16254;SDS011;8235;52.198;9.904;2023-03-01T16:34:30;4.53;;;3.17;;
16254;SDS011;8235;52.198;9.904;2023-03-01T16:36:56;6.37;;;3.57;;
16254;SDS011;8235;52.198;9.904;2023-03-01T16:39:23;4.93;;;3.40;;
16254;SDS011;8235;52.198;9.904;2023-03-01T16:41:49;4.90;;;3.10;;
16254;SDS011;8235;52.198;9.904;2023-03-01T16:44:15;5.40;;;3.80;;
16254;SDS011;8235;52.198;9.904;2023-03-01T16:46:42;3.40;;;2.70;;
16254;SDS011;8235;52.198;9.904;2023-03-01T16:49:08;6.50;;;3.20;;
16254;SDS011;8235;52.198;9.904;2023-03-01T16:51:36;4.20;;;3.13;;
16254;SDS011;8235;52.198;9.904;2023-03-01T16:54:03;4.93;;;3.40;;
16254;SDS011;8235;52.198;9.904;2023-03-01T16:56:31;6.27;;;3.57;;
16254;SDS011;8235;52.198;9.904;2023-03-01T16:59:00;4.80;;;3.60;;
16254;SDS011;8235;52.198;9.904;2023-03-01T17:01:27;6.20;;;4.30;;
16254;SDS011;8235;52.198;9.904;2023-03-01T17:03:57;6.83;;;3.50;;
16254;SDS011;8235;52.198;9.904;2023-03-01T17:06:25;6.17;;;3.27;;